createdAt,value
2018-07-04T00:00:51.808Z,65.80
2018-07-04T00:03:31.284Z,69.90
2018-07-04T00:06:10.867Z,70.40
2018-07-04T00:08:50.415Z,71.40
2018-07-04T00:11:29.856Z,71.80
2018-07-04T00:14:09.452Z,70.50
2018-07-04T00:16:49.281Z,68.50
2018-07-04T00:19:28.696Z,66.70
2018-07-04T00:22:08.178Z,65.20
2018-07-04T00:24:47.663Z,65.30
2018-07-04T00:27:27.253Z,65.10
2018-07-04T00:30:06.700Z,65.10
2018-07-04T00:32:46.303Z,65.20
2018-07-04T00:35:25.786Z,68.70
2018-07-04T00:38:05.387Z,67.30
2018-07-04T00:40:44.721Z,64.20
2018-07-04T00:43:24.287Z,63.70
2018-07-04T00:46:03.740Z,63.40
2018-07-04T00:48:43.305Z,65.00
2018-07-04T00:51:23.005Z,64.20
2018-07-04T00:54:02.486Z,63.90
2018-07-04T00:56:41.968Z,64.90
2018-07-04T00:59:21.548Z,64.50
2018-07-04T01:02:01.066Z,62.00
2018-07-04T01:04:40.631Z,63.10
2018-07-04T01:07:20.144Z,63.80
2018-07-04T01:09:59.544Z,65.30
2018-07-04T01:12:39.103Z,70.00
2018-07-04T01:15:18.604Z,72.20
2018-07-04T01:17:58.159Z,66.50
2018-07-04T01:20:43.012Z,67.50
2018-07-04T01:23:22.580Z,69.30
2018-07-04T01:26:02.153Z,68.60
2018-07-04T01:28:46.972Z,68.60
2018-07-04T01:31:26.543Z,67.30
2018-07-04T01:34:05.964Z,70.60
2018-07-04T01:36:45.635Z,73.20
2018-07-04T01:39:25.152Z,73.90
2018-07-04T01:42:04.748Z,73.90
2018-07-04T01:44:44.308Z,74.30
2018-07-04T01:47:23.939Z,74.40
2018-07-04T01:50:03.496Z,74.10
2018-07-04T01:52:42.839Z,74.50
2018-07-04T01:55:22.416Z,75.80
2018-07-04T01:58:01.891Z,74.20
2018-07-04T02:00:41.339Z,72.70
2018-07-04T02:03:20.924Z,71.10
2018-07-04T02:06:00.276Z,71.40
2018-07-04T02:08:39.848Z,72.80
2018-07-04T02:11:19.357Z,73.40
2018-07-04T02:13:58.913Z,72.40
2018-07-04T02:16:38.508Z,73.10
2018-07-04T02:19:18.288Z,74.60
2018-07-04T02:21:57.780Z,73.80
2018-07-04T02:24:37.256Z,74.60
2018-07-04T02:27:16.819Z,75.90
2018-07-04T02:29:56.249Z,76.60
2018-07-04T02:32:35.804Z,77.90
2018-07-04T02:35:15.377Z,76.50
2018-07-04T02:37:54.732Z,74.20
2018-07-04T02:40:34.313Z,74.10
2018-07-04T02:43:13.752Z,74.20
2018-07-04T02:45:53.348Z,72.80
2018-07-04T02:48:32.865Z,71.10
2018-07-04T02:51:12.384Z,69.40
2018-07-04T02:53:51.960Z,69.10
2018-07-04T02:56:31.599Z,67.90
2018-07-04T02:59:11.168Z,68.30
2018-07-04T03:01:50.733Z,68.40
2018-07-04T03:04:30.267Z,68.60
2018-07-04T03:07:09.692Z,68.70
2018-07-04T03:09:49.140Z,69.00
2018-07-04T03:12:28.704Z,69.50
2018-07-04T03:15:08.264Z,69.90
2018-07-04T03:17:47.708Z,70.10
2018-07-04T03:20:27.272Z,70.50
2018-07-04T03:23:06.839Z,71.30
2018-07-04T03:25:46.181Z,71.60
2018-07-04T03:28:25.828Z,71.90
2018-07-04T03:31:05.260Z,72.10
2018-07-04T03:33:44.736Z,72.00
2018-07-04T03:36:24.302Z,72.40
2018-07-04T03:39:04.754Z,72.50
2018-07-04T03:41:44.104Z,73.10
2018-07-04T03:44:23.755Z,72.70
2018-07-04T03:47:03.198Z,72.90
2018-07-04T03:49:42.811Z,72.60
2018-07-04T03:52:22.372Z,72.40
2018-07-04T03:55:02.057Z,72.60
2018-07-04T03:57:41.509Z,73.80
2018-07-04T04:00:21.132Z,73.10
2018-07-04T04:03:00.580Z,71.90
2018-07-04T04:05:40.136Z,73.40
2018-07-04T04:08:19.567Z,75.00
2018-07-04T04:10:59.144Z,74.60
2018-07-04T04:13:38.703Z,77.00
2018-07-04T04:16:19.020Z,77.40
2018-07-04T04:18:58.476Z,79.00
2018-07-04T04:21:38.060Z,79.10
2018-07-04T04:24:17.385Z,79.20
2018-07-04T04:26:57.007Z,76.30
2018-07-04T04:29:36.607Z,75.20
2018-07-04T04:32:16.084Z,74.10
2018-07-04T04:34:55.784Z,75.70
2018-07-04T04:37:35.341Z,75.20
2018-07-04T04:40:14.673Z,74.20
2018-07-04T04:42:54.219Z,73.90
2018-07-04T04:45:33.648Z,72.80
2018-07-04T04:48:13.223Z,73.70
2018-07-04T04:50:52.767Z,74.00
2018-07-04T04:53:32.329Z,74.40
2018-07-04T04:56:11.884Z,74.80
2018-07-04T04:58:51.423Z,73.50
2018-07-04T05:01:30.764Z,73.30
2018-07-04T05:04:10.445Z,77.00
2018-07-04T05:06:49.897Z,79.60
2018-07-04T05:09:29.479Z,80.70
2018-07-04T05:12:09.111Z,81.00
2018-07-04T05:14:48.596Z,77.20
2018-07-04T05:17:28.047Z,76.60
2018-07-04T05:20:07.631Z,75.40
2018-07-04T05:22:47.032Z,75.60
2018-07-04T05:25:26.452Z,75.10
2018-07-04T05:28:06.043Z,72.60
2018-07-04T05:30:45.616Z,71.10
2018-07-04T05:33:25.240Z,69.90
2018-07-04T05:36:04.713Z,68.60
2018-07-04T05:38:44.288Z,68.60
2018-07-04T05:41:23.927Z,68.00
2018-07-04T05:44:03.392Z,66.90
2018-07-04T05:46:42.948Z,67.60
2018-07-04T05:49:22.518Z,67.00
2018-07-04T05:52:02.056Z,66.60
2018-07-04T05:54:41.572Z,67.00
2018-07-04T05:57:21.159Z,66.50
2018-07-04T06:00:00.792Z,66.40
2018-07-04T06:02:40.358Z,65.20
2018-07-04T06:05:19.747Z,65.30
2018-07-04T06:07:59.499Z,65.80
2018-07-04T06:10:39.063Z,67.20
2018-07-04T06:13:18.820Z,66.80
2018-07-04T06:15:58.424Z,67.40
2018-07-04T06:18:37.922Z,68.00
2018-07-04T06:21:17.600Z,68.00
2018-07-04T06:23:56.980Z,65.80
2018-07-04T06:26:36.585Z,64.70
2018-07-04T06:29:16.033Z,63.80
2018-07-04T06:31:55.654Z,64.80
2018-07-04T06:34:35.247Z,63.10
2018-07-04T06:37:14.603Z,61.80
2018-07-04T06:39:41.840Z,61.10
2018-07-04T06:42:09.089Z,62.20
2018-07-04T06:44:36.308Z,63.40
2018-07-04T06:47:03.759Z,63.80
2018-07-04T06:49:31.000Z,61.20
2018-07-04T06:51:58.222Z,60.90
2018-07-04T06:54:25.488Z,62.60
2018-07-04T06:56:52.868Z,61.20
2018-07-04T06:59:20.112Z,61.20
2018-07-04T07:01:47.377Z,61.80
2018-07-04T07:04:26.760Z,60.20
2018-07-04T07:07:06.352Z,59.90
2018-07-04T07:09:46.157Z,61.20
2018-07-04T07:12:25.707Z,61.00
2018-07-04T07:15:05.108Z,58.10
2018-07-04T07:17:44.632Z,57.50
2018-07-04T07:20:24.199Z,57.30
2018-07-04T07:23:03.747Z,57.80
2018-07-04T07:25:43.327Z,56.80
2018-07-04T07:28:22.652Z,57.10
2018-07-04T07:31:02.132Z,57.40
2018-07-04T07:33:41.707Z,57.70
2018-07-04T07:36:21.260Z,57.70
2018-07-04T07:39:00.747Z,59.00
2018-07-04T07:41:40.173Z,59.00
2018-07-04T07:44:19.768Z,57.90
2018-07-04T07:46:59.208Z,58.30
2018-07-04T07:49:38.784Z,57.50
2018-07-04T07:52:18.314Z,57.00
2018-07-04T07:54:57.915Z,57.70
2018-07-04T07:57:37.352Z,56.90
2018-07-04T08:00:16.975Z,57.30
2018-07-04T08:02:56.340Z,59.10
2018-07-04T08:05:35.964Z,57.20
2018-07-04T08:08:15.395Z,57.60
2018-07-04T08:10:54.956Z,54.00
2018-07-04T08:13:34.520Z,55.20
2018-07-04T08:16:13.996Z,55.80
2018-07-04T08:18:54.222Z,55.30
2018-07-04T08:21:33.762Z,52.50
2018-07-04T08:24:13.284Z,52.70
2018-07-04T08:26:53.148Z,52.30
2018-07-04T08:29:32.716Z,52.00
2018-07-04T08:32:12.235Z,52.10
2018-07-04T08:34:51.743Z,51.90
2018-07-04T08:37:31.319Z,52.40
2018-07-04T08:40:10.832Z,51.80
2018-07-04T08:42:50.483Z,49.40
2018-07-04T08:45:29.884Z,50.20
2018-07-04T08:48:09.848Z,48.10
2018-07-04T08:50:49.310Z,49.50
2018-07-04T08:53:28.727Z,52.10
2018-07-04T08:56:08.145Z,55.10
2018-07-04T08:58:47.671Z,56.10
2018-07-04T09:01:27.492Z,58.20
2018-07-04T09:04:06.892Z,59.40
2018-07-04T09:06:46.402Z,59.80
2018-07-04T09:09:25.913Z,59.20
2018-07-04T09:12:06.140Z,57.40
2018-07-04T09:14:45.628Z,57.40
2018-07-04T09:17:25.109Z,58.70
2018-07-04T09:20:04.620Z,60.10
2018-07-04T09:22:44.248Z,61.40
2018-07-04T09:25:23.591Z,62.40
2018-07-04T09:28:03.143Z,62.20
2018-07-04T09:30:42.592Z,62.00
2018-07-04T09:33:22.107Z,62.20
2018-07-04T09:36:01.584Z,62.80
2018-07-04T09:38:41.128Z,64.40
2018-07-04T09:41:20.684Z,73.60
2018-07-04T09:44:00.233Z,77.70
2018-07-04T09:46:39.856Z,81.40
2018-07-04T09:49:19.320Z,85.20
2018-07-04T09:51:58.888Z,87.70
2018-07-04T09:54:38.344Z,88.40
2018-07-04T09:57:17.907Z,92.30
2018-07-04T09:59:57.456Z,92.20
2018-07-04T10:02:36.912Z,93.10
2018-07-04T10:05:16.476Z,92.60
2018-07-04T10:07:56.081Z,93.30
2018-07-04T10:10:35.640Z,92.50
2018-07-04T10:13:15.208Z,92.70
2018-07-04T10:15:54.592Z,92.80
2018-07-04T10:18:34.196Z,93.00
2018-07-04T10:21:13.807Z,93.60
2018-07-04T10:23:53.296Z,94.50
2018-07-04T10:26:32.740Z,94.10
2018-07-04T10:29:12.292Z,92.00
2018-07-04T10:31:51.795Z,90.90
2018-07-04T10:34:31.349Z,91.30
2018-07-04T10:37:10.744Z,92.70
2018-07-04T10:39:50.387Z,92.40
2018-07-04T10:42:29.861Z,89.20
2018-07-04T10:45:10.260Z,80.50
2018-07-04T10:47:49.727Z,80.10
2018-07-04T10:50:29.216Z,73.10
2018-07-04T10:53:08.806Z,78.00
2018-07-04T10:55:48.236Z,80.20
2018-07-04T10:58:27.717Z,77.40
2018-07-04T11:01:07.272Z,73.10
2018-07-04T11:03:46.799Z,66.80
2018-07-04T11:06:26.327Z,70.40
2018-07-04T11:09:06.011Z,69.80
2018-07-04T11:11:45.578Z,65.70
2018-07-04T11:14:25.344Z,70.10
2018-07-04T11:17:04.906Z,69.50
2018-07-04T11:19:44.271Z,62.10
2018-07-04T11:22:23.892Z,61.00
2018-07-04T11:25:03.881Z,63.10
2018-07-04T11:27:43.335Z,58.30
2018-07-04T11:30:22.929Z,58.10
2018-07-04T11:33:02.495Z,59.60
2018-07-04T11:35:41.884Z,57.50
2018-07-04T11:38:21.447Z,56.10
2018-07-04T11:41:01.273Z,57.00
2018-07-04T11:43:41.096Z,57.00
2018-07-04T11:46:08.344Z,56.70
2018-07-04T11:48:35.581Z,60.10
2018-07-04T11:51:02.812Z,58.90
2018-07-04T11:53:30.072Z,60.50
2018-07-04T11:55:58.140Z,57.30
2018-07-04T11:58:25.384Z,58.70
2018-07-04T12:00:52.629Z,62.10
2018-07-04T12:03:21.081Z,64.00
2018-07-04T12:06:00.640Z,62.20
2018-07-04T12:08:27.930Z,62.90
2018-07-04T12:10:55.637Z,66.60
2018-07-04T12:13:23.907Z,66.70
2018-07-04T12:15:51.648Z,67.20
2018-07-04T12:18:18.896Z,67.70
2018-07-04T12:20:46.333Z,63.60
2018-07-04T12:23:13.919Z,63.60
2018-07-04T12:25:41.920Z,64.60
2018-07-04T12:28:09.172Z,64.50
2018-07-04T12:30:36.418Z,65.80
2018-07-04T12:33:03.808Z,66.30
2018-07-04T12:35:31.108Z,66.80
2018-07-04T12:37:58.340Z,66.90
2018-07-04T12:40:25.596Z,66.70
2018-07-04T12:42:52.832Z,67.20
2018-07-04T12:45:20.068Z,69.10
2018-07-04T12:47:47.324Z,72.00
2018-07-04T12:50:26.712Z,72.30
2018-07-04T12:52:54.220Z,72.40
2018-07-04T12:55:39.168Z,72.70
2018-07-04T12:58:19.636Z,74.00
2018-07-04T13:00:59.032Z,74.90
2018-07-04T13:03:38.636Z,74.50
2018-07-04T13:06:18.191Z,75.60
2018-07-04T13:08:57.747Z,75.30
2018-07-04T13:11:37.174Z,75.00
2018-07-04T13:14:16.747Z,76.10
2018-07-04T13:16:56.280Z,77.60
2018-07-04T13:19:36.232Z,77.80
2018-07-04T13:22:15.583Z,77.80
2018-07-04T13:24:55.432Z,77.20
2018-07-04T13:27:34.864Z,79.00
2018-07-04T13:30:14.352Z,80.10
2018-07-04T13:32:53.848Z,80.60
2018-07-04T13:35:33.387Z,81.20
2018-07-04T13:38:13.001Z,81.20
2018-07-04T13:40:52.485Z,82.10
2018-07-04T13:43:32.000Z,81.10
2018-07-04T13:46:11.324Z,82.10
2018-07-04T13:48:50.929Z,81.80
2018-07-04T13:51:30.386Z,81.30
2018-07-04T13:54:09.883Z,81.60
2018-07-04T13:56:49.388Z,82.20
2018-07-04T13:59:28.964Z,81.90
2018-07-04T14:02:08.448Z,82.20
2018-07-04T14:04:48.728Z,80.70
2018-07-04T14:07:28.056Z,79.80
2018-07-04T14:10:07.566Z,79.00
2018-07-04T14:12:47.173Z,78.80
2018-07-04T14:15:26.975Z,77.20
2018-07-04T14:18:06.516Z,75.90
2018-07-04T14:20:46.104Z,74.10
2018-07-04T14:23:25.571Z,74.50
2018-07-04T14:26:05.153Z,73.60
2018-07-04T14:28:44.716Z,73.90
2018-07-04T14:31:24.284Z,73.80
2018-07-04T14:34:03.856Z,73.50
2018-07-04T14:36:43.196Z,73.50
2018-07-04T14:39:22.659Z,73.50
2018-07-04T14:42:02.211Z,73.40
2018-07-04T14:44:41.744Z,74.00
2018-07-04T14:47:21.136Z,74.50
2018-07-04T14:50:00.599Z,75.30
2018-07-04T14:52:40.200Z,74.30
2018-07-04T14:55:19.660Z,74.00
2018-07-04T14:57:59.249Z,74.00
2018-07-04T15:00:38.740Z,74.80
2018-07-04T15:03:18.318Z,74.30
2018-07-04T15:05:57.667Z,74.30
2018-07-04T15:08:37.285Z,74.40
2018-07-04T15:11:16.751Z,74.50
2018-07-04T15:13:56.099Z,73.20
2018-07-04T15:16:35.661Z,73.70
2018-07-04T15:19:15.189Z,73.80
2018-07-04T15:21:54.774Z,73.90
2018-07-04T15:24:34.259Z,73.60
2018-07-04T15:27:13.768Z,71.00
2018-07-04T15:29:53.152Z,71.70
2018-07-04T15:32:32.634Z,72.10
2018-07-04T15:35:12.092Z,71.60
2018-07-04T15:37:51.673Z,70.80
2018-07-04T15:40:31.144Z,70.10
2018-07-04T15:43:10.671Z,69.50
2018-07-04T15:45:50.195Z,70.10
2018-07-04T15:48:29.637Z,69.90
2018-07-04T15:51:09.257Z,69.60
2018-07-04T15:53:48.807Z,71.20
2018-07-04T15:56:28.271Z,71.40
2018-07-04T15:59:07.652Z,71.40
2018-07-04T16:01:47.004Z,70.30
2018-07-04T16:04:26.572Z,70.30
2018-07-04T16:07:06.073Z,71.00
2018-07-04T16:09:45.651Z,71.80
2018-07-04T16:12:25.018Z,72.30
2018-07-04T16:15:04.923Z,72.10
2018-07-04T16:17:44.333Z,71.70
2018-07-04T16:20:23.697Z,71.50
2018-07-04T16:23:03.264Z,70.50
2018-07-04T16:25:42.844Z,67.00
2018-07-04T16:28:22.276Z,63.90
2018-07-04T16:31:01.819Z,64.30
2018-07-04T16:33:41.385Z,65.10
2018-07-04T16:36:20.968Z,65.60
2018-07-04T16:39:00.524Z,66.00
2018-07-04T16:41:40.140Z,64.50
2018-07-04T16:44:20.525Z,65.20
2018-07-04T16:47:00.617Z,66.70
2018-07-04T16:49:40.583Z,68.10
2018-07-04T16:52:20.646Z,69.00
2018-07-04T16:55:00.385Z,68.40
2018-07-04T16:57:39.968Z,67.30
2018-07-04T17:00:19.524Z,67.60
2018-07-04T17:02:59.325Z,66.50
2018-07-04T17:05:39.180Z,66.90
2018-07-04T17:08:19.255Z,68.30
2018-07-04T17:10:59.256Z,67.10
2018-07-04T17:13:39.370Z,67.70
2018-07-04T17:16:19.324Z,67.20
2018-07-04T17:18:59.558Z,69.00
2018-07-04T17:21:39.427Z,69.20
2018-07-04T17:24:19.234Z,69.10
2018-07-04T17:26:59.383Z,70.30
2018-07-04T17:29:38.886Z,68.90
2018-07-04T17:32:18.374Z,67.20
2018-07-04T17:34:57.819Z,67.90
2018-07-04T17:37:37.760Z,66.20
2018-07-04T17:40:17.400Z,67.00
2018-07-04T17:42:56.943Z,67.20
2018-07-04T17:45:36.349Z,66.60
2018-07-04T17:48:15.828Z,67.30
2018-07-04T17:50:55.464Z,67.10
2018-07-04T17:53:36.269Z,67.20
2018-07-04T17:56:17.961Z,67.00
2018-07-04T17:58:58.223Z,67.30
2018-07-04T18:01:40.555Z,67.90
2018-07-04T18:04:21.148Z,68.00
2018-07-04T18:09:56.834Z,68.30
2018-07-04T18:12:39.209Z,68.50
2018-07-04T18:15:21.119Z,68.40
2018-07-04T18:18:01.718Z,68.40
2018-07-04T18:20:42.656Z,69.60
2018-07-04T18:23:24.460Z,70.60
2018-07-04T18:26:04.083Z,70.70
2018-07-04T18:31:17.081Z,70.70
2018-07-04T18:33:57.344Z,70.60
2018-07-04T18:36:36.722Z,71.10
2018-07-04T18:39:16.321Z,69.80
2018-07-04T18:41:56.338Z,69.90
2018-07-04T18:44:35.907Z,70.10
2018-07-04T18:47:15.569Z,70.10
2018-07-04T18:49:55.021Z,70.60
2018-07-04T18:52:34.724Z,71.20
2018-07-04T18:55:17.222Z,71.50
2018-07-04T18:57:58.987Z,72.50
2018-07-04T19:00:42.494Z,73.30
2018-07-04T19:06:12.425Z,75.30
2018-07-04T19:08:56.585Z,75.00
2018-07-04T19:11:37.735Z,75.60
2018-07-04T19:14:21.324Z,75.50
2018-07-04T19:17:01.695Z,75.70
2018-07-04T19:19:44.377Z,76.50
2018-07-04T19:22:32.313Z,77.20
2018-07-04T19:25:15.470Z,77.20
2018-07-04T19:27:56.741Z,78.20
2018-07-04T19:30:37.354Z,78.80
2018-07-04T19:33:18.417Z,79.00
2018-07-04T19:38:37.784Z,80.80
2018-07-04T19:41:18.537Z,81.40
2018-07-04T19:43:59.449Z,81.70
2018-07-04T19:46:40.846Z,82.50
2018-07-04T19:49:23.996Z,83.00
2018-07-04T19:52:04.833Z,83.40
2018-07-04T19:54:46.291Z,84.10
2018-07-04T19:57:28.044Z,85.00
2018-07-04T20:00:10.570Z,85.60
2018-07-04T20:02:52.138Z,86.60
2018-07-04T20:05:32.906Z,87.50
2018-07-04T20:08:14.645Z,88.90
2018-07-04T20:10:57.113Z,89.80
2018-07-04T20:13:38.610Z,89.10
2018-07-04T20:16:21.145Z,89.50
2018-07-04T20:19:02.314Z,89.50
2018-07-04T20:21:44.857Z,89.60
2018-07-04T20:24:24.566Z,89.60
2018-07-04T20:27:04.180Z,90.20
2018-07-04T20:29:43.760Z,90.20
2018-07-04T20:32:23.336Z,90.30
2018-07-04T20:35:03.371Z,90.30
2018-07-04T20:37:43.056Z,90.50
2018-07-04T20:40:22.343Z,90.70
2018-07-04T20:43:01.980Z,90.60
2018-07-04T20:45:41.480Z,90.60
2018-07-04T20:48:21.098Z,90.60
2018-07-04T20:51:00.457Z,90.80
2018-07-04T20:53:40.040Z,90.80
2018-07-04T20:56:19.388Z,90.70
2018-07-04T20:58:58.936Z,90.70
2018-07-04T21:01:38.416Z,90.80
2018-07-04T21:04:17.999Z,90.60
2018-07-04T21:06:57.639Z,90.60
2018-07-04T21:09:37.059Z,90.80
2018-07-04T21:12:16.657Z,90.80
2018-07-04T21:14:55.997Z,91.00
2018-07-04T21:17:35.532Z,91.20
2018-07-04T21:20:15.017Z,91.20
2018-07-04T21:22:54.627Z,91.70
2018-07-04T21:25:34.872Z,91.80
2018-07-04T21:28:14.404Z,92.00
2018-07-04T21:30:54.002Z,92.20
2018-07-04T21:33:33.576Z,92.30
2018-07-04T21:36:13.178Z,92.40
2018-07-04T21:38:52.660Z,92.60
2018-07-04T21:41:32.225Z,92.60
2018-07-04T21:44:11.692Z,92.80
2018-07-04T21:46:51.315Z,92.90
2018-07-04T21:49:30.811Z,93.10
2018-07-04T21:52:10.696Z,92.60
2018-07-04T21:54:50.145Z,92.90
2018-07-04T21:57:29.612Z,93.00
2018-07-04T22:00:09.701Z,93.10
2018-07-04T22:02:49.212Z,93.00
2018-07-04T22:05:28.740Z,93.00
2018-07-04T22:08:08.340Z,92.70
2018-07-04T22:10:47.898Z,92.60
2018-07-04T22:13:27.345Z,92.50
2018-07-04T22:16:06.906Z,92.30
2018-07-04T22:18:46.452Z,92.30
2018-07-04T22:21:26.004Z,92.10
2018-07-04T22:24:05.480Z,92.30
2018-07-04T22:26:45.072Z,92.30
2018-07-04T22:29:24.532Z,92.30
2018-07-04T22:32:04.084Z,92.40
2018-07-04T22:34:43.556Z,92.80
2018-07-04T22:37:22.891Z,92.90
2018-07-04T22:40:02.977Z,93.20
2018-07-04T22:42:42.426Z,93.20
2018-07-04T22:45:22.772Z,93.40
2018-07-04T22:48:02.318Z,93.70
2018-07-04T22:50:42.483Z,93.60
2018-07-04T22:53:21.935Z,93.50
2018-07-04T22:56:01.405Z,93.60
2018-07-04T22:58:41.048Z,93.70
2018-07-04T23:01:20.616Z,93.60
2018-07-04T23:04:00.268Z,93.50
2018-07-04T23:06:39.625Z,93.50
2018-07-04T23:09:19.068Z,93.40
2018-07-04T23:11:58.706Z,93.70
2018-07-04T23:14:38.163Z,93.80
2018-07-04T23:17:17.745Z,94.10
2018-07-04T23:19:57.200Z,93.50
2018-07-04T23:22:36.748Z,93.30
2018-07-04T23:25:16.371Z,93.90
2018-07-04T23:27:55.904Z,94.60
2018-07-04T23:30:35.356Z,96.20
2018-07-04T23:33:14.904Z,96.80
2018-07-04T23:35:54.528Z,96.60
2018-07-04T23:38:34.387Z,96.40
2018-07-04T23:41:14.011Z,96.70
2018-07-04T23:43:53.527Z,96.80
2018-07-04T23:46:32.975Z,96.70
2018-07-04T23:49:12.560Z,96.60
2018-07-04T23:51:52.010Z,96.50
2018-07-04T23:54:31.572Z,96.40
2018-07-04T23:57:11.022Z,96.50
2018-07-04T23:59:50.507Z,96.00
